Time;durP1;ratioP1;P1;durP2;ratioP2;P2;SDS_P1;SDS_P2;PMS_P1;PMS_P2;Temp;Humidity;BMP_temperature;BMP_pressure;BME280_temperature;BME280_humidity;BME280_pressure;Samples;Min_cycle;Max_cycle;Signal;HPM_P1;HPM_P2
2022/03/26 00:01:48;;;;;;;16.93;14.20;;;;;;;7.38;47.84;99704.05;1673436;84;21049;-67
2022/03/26 00:04:15;;;;;;;17.57;13.88;;;;;;;7.37;47.90;99698.44;1653250;85;21231;-68
2022/03/26 00:06:44;;;;;;;18.23;14.30;;;;;;;7.39;47.93;99696.95;1672935;85;20952;-68
2022/03/26 00:09:11;;;;;;;16.93;13.18;;;;;;;7.38;47.97;99694.80;1674434;85;21441;-66
2022/03/26 00:11:40;;;;;;;20.88;14.23;;;;;;;7.39;48.11;99694.31;1645164;87;21492;-69
2022/03/26 00:14:08;;;;;;;18.75;14.20;;;;;;;7.36;48.17;99684.84;1674996;85;20947;-69
2022/03/26 00:16:37;;;;;;;20.90;14.98;;;;;;;7.37;48.21;99690.50;1678907;84;21122;-64
2022/03/26 00:19:04;;;;;;;20.92;14.33;;;;;;;7.38;48.24;99691.31;1675720;85;21630;-67
2022/03/26 00:21:33;;;;;;;16.67;14.10;;;;;;;7.37;48.27;99686.53;1675860;85;21033;-69
2022/03/26 00:24:01;;;;;;;21.75;15.32;;;;;;;7.35;48.29;99684.48;1675071;84;21016;-67
2022/03/26 00:26:28;;;;;;;23.07;15.45;;;;;;;7.36;48.29;99678.71;1675043;85;20918;-69
2022/03/26 00:28:57;;;;;;;17.25;14.07;;;;;;;7.32;48.21;99683.48;1673731;85;20970;-69
2022/03/26 00:31:24;;;;;;;22.35;15.55;;;;;;;7.26;48.13;99678.76;1617227;87;21052;-69
2022/03/26 00:33:53;;;;;;;22.62;15.20;;;;;;;7.17;48.18;99669.02;1635137;85;20974;-68
2022/03/26 00:36:21;;;;;;;18.40;14.65;;;;;;;7.11;48.34;99671.42;1637189;87;21062;-66
2022/03/26 00:38:48;;;;;;;18.40;14.83;;;;;;;7.04;48.59;99668.50;1652682;85;20909;-67
2022/03/26 00:41:15;;;;;;;18.37;13.80;;;;;;;6.99;48.80;99666.78;1663174;84;21250;-70
2022/03/26 00:43:42;;;;;;;20.40;13.43;;;;;;;6.95;49.05;99670.70;1666161;84;20996;-65
2022/03/26 00:46:11;;;;;;;18.85;14.25;;;;;;;6.93;49.21;99670.50;1675575;84;21000;-67
2022/03/26 00:48:38;;;;;;;17.55;14.00;;;;;;;6.92;49.34;99666.17;1666964;84;20944;-70
2022/03/26 00:51:05;;;;;;;20.40;13.75;;;;;;;6.89;49.45;99658.52;1668774;84;20964;-69
2022/03/26 00:53:33;;;;;;;15.72;13.25;;;;;;;6.86;49.59;99658.31;1667118;84;21254;-67
2022/03/26 00:56:01;;;;;;;17.30;13.95;;;;;;;6.84;49.74;99657.63;1666934;84;21079;-69
2022/03/26 00:58:29;;;;;;;19.77;15.00;;;;;;;6.82;49.79;99655.14;1635505;87;21513;-68
2022/03/26 01:00:56;;;;;;;18.35;14.13;;;;;;;6.79;49.96;99652.78;1697080;82;21018;-70
2022/03/26 01:03:23;;;;;;;18.32;13.93;;;;;;;6.76;50.05;99653.05;1699745;84;21009;-69
2022/03/26 01:05:51;;;;;;;20.80;14.35;;;;;;;6.74;50.21;99642.27;1703144;82;21851;-67
2022/03/26 01:08:18;;;;;;;19.17;13.05;;;;;;;6.73;50.32;99639.27;1702080;82;20889;-68
2022/03/26 01:10:47;;;;;;;20.35;13.90;;;;;;;6.73;50.42;99638.80;1699648;84;21083;-66
2022/03/26 01:13:16;;;;;;;19.07;13.62;;;;;;;6.76;50.47;99642.96;1700494;83;21010;-68
2022/03/26 01:15:43;;;;;;;21.70;14.30;;;;;;;6.76;50.55;99640.31;1699558;84;21045;-67
2022/03/26 01:18:11;;;;;;;17.87;13.35;;;;;;;6.76;50.60;99637.67;1708258;82;21953;-69
2022/03/26 01:20:38;;;;;;;20.90;14.07;;;;;;;6.77;50.67;99635.39;1699754;84;20879;-66
2022/03/26 01:23:05;;;;;;;18.25;13.68;;;;;;;6.76;50.75;99638.52;1700548;83;21077;-67
2022/03/26 01:25:34;;;;;;;17.00;13.45;;;;;;;6.77;50.79;99638.03;1699697;84;21883;-69
2022/03/26 01:28:01;;;;;;;17.65;14.53;;;;;;;6.78;50.75;99636.55;1702715;83;21052;-67
2022/03/26 01:30:28;;;;;;;18.15;14.87;;;;;;;6.78;50.84;99633.06;1699700;84;21214;-67
2022/03/26 01:32:56;;;;;;;20.62;14.95;;;;;;;6.78;50.85;99629.10;1700518;83;21068;-67
2022/03/26 01:35:25;;;;;;;21.62;15.80;;;;;;;6.74;50.89;99631.22;1700417;83;21022;-67
2022/03/26 01:37:52;;;;;;;20.77;15.80;;;;;;;6.73;50.99;99630.02;1702761;82;21551;-68
2022/03/26 01:40:20;;;;;;;17.90;15.68;;;;;;;6.72;51.16;99626.56;1688575;82;21104;-67
2022/03/26 01:42:47;;;;;;;20.43;15.25;;;;;;;6.71;51.20;99630.66;1698122;83;21269;-68
2022/03/26 01:45:15;;;;;;;19.77;15.90;;;;;;;6.70;51.34;99632.46;1695316;83;20959;-67
2022/03/26 01:47:42;;;;;;;18.50;14.73;;;;;;;6.69;51.44;99627.33;1693533;83;21007;-68
2022/03/26 01:50:10;;;;;;;22.90;15.60;;;;;;;6.68;51.46;99630.94;1696708;83;21507;-67
2022/03/26 01:52:38;;;;;;;16.75;13.55;;;;;;;6.67;51.53;99624.80;1692384;83;20959;-66
2022/03/26 01:55:08;;;;;;;23.85;13.95;;;;;;;6.65;51.62;99624.61;1695332;83;21125;-67
2022/03/26 01:57:35;;;;;;;22.65;14.05;;;;;;;6.65;51.72;99625.92;1693003;83;20918;-68
2022/03/26 02:00:06;;;;;;;17.87;13.32;;;;;;;6.62;51.74;99625.72;1695348;83;21555;-68
2022/03/26 02:02:37;;;;;;;21.62;13.78;;;;;;;6.61;51.85;99616.62;1660541;85;21074;-67
2022/03/26 02:05:05;;;;;;;22.85;14.75;;;;;;;6.59;52.03;99622.07;1644549;87;21542;-67
2022/03/26 02:07:33;;;;;;;16.17;13.38;;;;;;;6.55;52.13;99621.98;1660509;85;21332;-67
2022/03/26 02:10:01;;;;;;;20.40;14.33;;;;;;;6.53;52.21;99616.50;1647322;85;21008;-67
2022/03/26 02:12:29;;;;;;;19.35;13.28;;;;;;;6.53;52.27;99615.17;1659167;86;21473;-67
2022/03/26 02:14:58;;;;;;;20.23;14.13;;;;;;;6.50;52.41;99615.45;1645899;85;21527;-68
2022/03/26 02:17:25;;;;;;;23.27;14.43;;;;;;;6.47;52.50;99613.92;1657563;86;21007;-66
2022/03/26 02:19:58;;;;;;;24.50;13.88;;;;;;;6.45;52.68;99613.72;1653703;86;21015;-68
2022/03/26 02:22:27;;;;;;;19.80;14.13;;;;;;;6.44;52.67;99611.56;1649286;85;21017;-69
2022/03/26 02:24:56;;;;;;;20.82;14.53;;;;;;;6.43;52.72;99609.91;1645937;85;20962;-69
2022/03/26 02:27:26;;;;;;;18.10;14.03;;;;;;;6.41;52.81;99611.03;1645741;85;21041;-66
2022/03/26 02:29:53;;;;;;;21.40;15.55;;;;;;;6.39;52.94;99610.34;1660688;85;21554;-70
2022/03/26 02:32:23;;;;;;;20.57;14.07;;;;;;;6.39;52.92;99605.05;1630929;88;21298;-68
2022/03/26 02:34:50;;;;;;;19.65;14.35;;;;;;;6.37;53.03;99606.98;1657886;86;21428;-67
2022/03/26 02:37:17;;;;;;;21.25;14.65;;;;;;;6.37;53.02;99604.34;1645779;85;20910;-68
2022/03/26 02:39:45;;;;;;;22.17;14.25;;;;;;;6.36;53.15;99604.02;1660415;85;20975;-68
2022/03/26 02:42:13;;;;;;;18.75;14.00;;;;;;;6.33;53.28;99595.04;1672057;85;21085;-68
2022/03/26 02:44:41;;;;;;;19.37;14.15;;;;;;;6.31;53.38;99599.64;1700375;83;22217;-68
2022/03/26 02:47:10;;;;;;;20.12;14.20;;;;;;;6.29;53.42;99597.59;1704874;82;20974;-67
2022/03/26 02:49:38;;;;;;;18.62;13.85;;;;;;;6.28;53.50;99598.11;1701842;83;21097;-66
2022/03/26 02:52:06;;;;;;;18.00;13.93;;;;;;;6.28;53.57;99598.59;1704052;82;21017;-69
2022/03/26 02:54:35;;;;;;;18.57;14.53;;;;;;;6.26;53.67;99598.72;1700426;83;21492;-67
2022/03/26 02:57:03;;;;;;;17.48;15.25;;;;;;;6.25;53.72;99596.22;1704885;82;21335;-67
2022/03/26 02:59:30;;;;;;;25.17;17.57;;;;;;;6.22;53.83;99596.02;1699541;84;21029;-67
2022/03/26 03:01:57;;;;;;;21.90;16.62;;;;;;;6.21;53.89;99595.18;1702712;82;21006;-67
2022/03/26 03:04:26;;;;;;;24.23;18.15;;;;;;;6.21;53.94;99594.34;1690702;83;21022;-67
2022/03/26 03:06:53;;;;;;;23.60;17.80;;;;;;;6.18;54.03;99593.30;1701773;83;21048;-67
2022/03/26 03:09:20;;;;;;;23.80;16.77;;;;;;;6.16;54.09;99589.96;1700771;82;22158;-67
2022/03/26 03:11:48;;;;;;;24.45;17.65;;;;;;;6.15;54.15;99589.63;1701787;82;20910;-67
2022/03/26 03:14:17;;;;;;;26.12;17.60;;;;;;;6.13;54.21;99588.44;1703668;82;20954;-67
2022/03/26 03:16:45;;;;;;;22.42;16.30;;;;;;;6.13;54.23;99585.80;1700076;84;20934;-68
2022/03/26 03:19:13;;;;;;;22.20;16.45;;;;;;;6.10;54.29;99588.70;1703162;83;21052;-66
2022/03/26 03:21:40;;;;;;;19.98;15.03;;;;;;;6.11;54.33;99577.18;1700635;83;21234;-67
2022/03/26 03:24:07;;;;;;;21.07;15.35;;;;;;;6.12;54.38;99577.54;1701457;83;21488;-68
2022/03/26 03:26:34;;;;;;;20.32;15.13;;;;;;;6.12;54.42;99578.02;1700532;83;21010;-69
2022/03/26 03:29:02;;;;;;;24.55;14.93;;;;;;;6.10;54.45;99572.05;1700582;83;21073;-65
2022/03/26 03:31:29;;;;;;;22.50;15.08;;;;;;;6.11;54.46;99569.26;1700682;83;21485;-70
2022/03/26 03:33:56;;;;;;;18.25;14.38;;;;;;;6.14;54.47;99562.86;1672901;84;21332;-68
2022/03/26 03:36:24;;;;;;;20.77;14.45;;;;;;;6.14;54.41;99553.13;1660231;85;20962;-67
2022/03/26 03:38:51;;;;;;;18.65;14.68;;;;;;;6.14;54.43;99551.81;1668222;86;20966;-67
2022/03/26 03:41:18;;;;;;;21.45;14.58;;;;;;;6.15;54.43;99552.14;1667964;86;20966;-69
2022/03/26 03:43:46;;;;;;;19.75;14.35;;;;;;;6.17;54.41;99548.89;1713346;83;20957;-67
2022/03/26 03:46:13;;;;;;;19.67;15.25;;;;;;;6.17;54.43;99551.53;1717827;83;21309;-67
2022/03/26 03:48:41;;;;;;;23.45;14.68;;;;;;;6.16;54.44;99548.53;1718103;83;20877;-67
2022/03/26 03:51:08;;;;;;;21.48;15.65;;;;;;;6.17;54.44;99542.30;1717752;83;20921;-68
2022/03/26 03:53:37;;;;;;;20.97;15.60;;;;;;;6.18;54.46;99540.45;1717622;83;21011;-67
2022/03/26 03:56:06;;;;;;;18.82;16.00;;;;;;;6.18;54.45;99536.02;1714524;83;21011;-67
2022/03/26 03:58:34;;;;;;;26.65;16.00;;;;;;;6.18;54.43;99525.45;1717723;82;22085;-67
2022/03/26 04:01:03;;;;;;;22.42;16.52;;;;;;;6.20;54.41;99521.36;1717476;82;21074;-69
2022/03/26 04:03:31;;;;;;;19.50;16.10;;;;;;;6.19;54.40;99521.84;1717728;83;21051;-69
2022/03/26 04:06:01;;;;;;;19.80;15.32;;;;;;;6.18;54.43;99521.48;1715780;83;20952;-66
2022/03/26 04:08:29;;;;;;;24.72;16.67;;;;;;;6.17;54.44;99521.64;1716144;83;20960;-69
2022/03/26 04:10:57;;;;;;;20.80;15.98;;;;;;;6.14;54.50;99521.44;1717572;83;21501;-67
2022/03/26 04:13:25;;;;;;;22.40;16.07;;;;;;;6.16;54.50;99514.20;1717529;83;21012;-66
2022/03/26 04:15:54;;;;;;;23.52;16.87;;;;;;;6.19;54.47;99517.05;1717240;83;21007;-67
2022/03/26 04:18:21;;;;;;;25.62;17.48;;;;;;;6.20;54.44;99512.12;1717487;83;21098;-66
2022/03/26 04:20:48;;;;;;;26.68;17.40;;;;;;;6.25;54.38;99505.08;1717738;83;20924;-67
2022/03/26 04:23:17;;;;;;;24.92;17.10;;;;;;;6.31;54.28;99505.84;1717579;83;22157;-67
2022/03/26 04:25:46;;;;;;;26.12;17.55;;;;;;;6.33;54.24;99507.84;1715745;83;20936;-68
2022/03/26 04:28:13;;;;;;;23.50;17.07;;;;;;;6.39;54.11;99505.45;1717730;83;21073;-67
2022/03/26 04:30:41;;;;;;;23.73;17.60;;;;;;;6.46;53.99;99505.73;1717583;83;20984;-71
2022/03/26 04:33:08;;;;;;;20.90;16.40;;;;;;;6.53;53.84;99498.87;1716195;83;20877;-67
2022/03/26 04:35:36;;;;;;;29.32;17.23;;;;;;;6.60;53.68;99498.64;1717614;83;21228;-70
2022/03/26 04:38:04;;;;;;;21.52;16.42;;;;;;;6.71;53.46;99495.82;1717622;83;21584;-66
2022/03/26 04:40:32;;;;;;;23.50;17.37;;;;;;;6.80;53.29;99493.13;1717509;82;20975;-67
2022/03/26 04:42:59;;;;;;;27.40;16.77;;;;;;;6.95;53.03;99490.84;1711887;83;21488;-66
2022/03/26 04:45:26;;;;;;;22.75;16.75;;;;;;;7.09;52.72;99494.30;1704464;82;20993;-68
2022/03/26 04:47:53;;;;;;;23.73;17.60;;;;;;;7.24;52.38;99494.17;1695944;83;21255;-66
2022/03/26 04:50:20;;;;;;;23.92;17.00;;;;;;;7.40;52.05;99496.97;1699672;84;21402;-66
2022/03/26 04:52:48;;;;;;;31.87;18.07;;;;;;;7.56;51.71;99492.84;1700567;83;20915;-67
2022/03/26 04:55:18;;;;;;;26.33;16.77;;;;;;;7.72;51.32;99485.86;1702739;82;21096;-67
2022/03/26 04:57:51;;;;;;;23.50;16.52;;;;;;;7.87;50.92;99484.85;1701196;83;21017;-67
2022/03/26 05:00:20;;;;;;;23.12;17.35;;;;;;;7.99;50.60;99477.83;1698277;84;21151;-67
2022/03/26 05:02:47;;;;;;;24.57;17.98;;;;;;;8.19;50.25;99477.13;1699569;84;20926;-68
2022/03/26 05:05:15;;;;;;;26.17;18.12;;;;;;;8.37;49.84;99473.97;1703019;83;20943;-69
2022/03/26 05:07:48;;;;;;;23.12;17.27;;;;;;;8.63;49.42;99476.59;1699553;84;20922;-68
2022/03/26 05:10:23;;;;;;;32.90;19.02;;;;;;;8.86;48.92;99465.80;1701538;82;21536;-70
2022/03/26 05:12:51;;;;;;;24.60;17.77;;;;;;;9.06;48.30;99469.01;1699751;84;21243;-68
2022/03/26 05:15:21;;;;;;;25.72;18.50;;;;;;;9.23;47.83;99466.23;1701290;83;20924;-68
2022/03/26 05:17:51;;;;;;;26.93;18.23;;;;;;;9.39;47.55;99456.14;1668698;85;20934;-68
2022/03/26 05:20:18;;;;;;;27.00;18.10;;;;;;;9.61;47.10;99455.53;1699277;83;20958;-70
2022/03/26 05:22:47;;;;;;;25.50;18.05;;;;;;;9.82;46.59;99449.23;1701353;83;21516;-67
2022/03/26 05:25:15;;;;;;;28.52;17.12;;;;;;;10.14;46.19;99446.26;1674542;84;21234;-67
2022/03/26 05:27:47;;;;;;;27.17;17.07;;;;;;;10.52;45.43;99441.02;1701442;82;20942;-69
2022/03/26 05:30:16;;;;;;;28.07;18.48;;;;;;;10.86;44.72;99447.38;1699702;83;20974;-70
2022/03/26 05:32:43;;;;;;;28.80;18.90;;;;;;;11.13;43.97;99438.11;1701329;82;21121;-70
2022/03/26 05:35:16;;;;;;;27.75;18.80;;;;;;;11.38;43.41;99437.45;1702633;82;21018;-66
2022/03/26 05:37:45;;;;;;;26.00;18.27;;;;;;;11.59;42.83;99432.31;1702323;82;21263;-68
2022/03/26 05:40:16;;;;;;;25.95;18.17;;;;;;;11.78;42.35;99425.71;1699583;84;21036;-68
2022/03/26 05:42:44;;;;;;;30.12;19.95;;;;;;;11.87;42.01;99429.45;1699074;83;20970;-68
2022/03/26 05:45:12;;;;;;;23.25;18.48;;;;;;;12.04;41.77;99432.31;1694032;83;20943;-68
2022/03/26 05:47:39;;;;;;;32.55;19.90;;;;;;;12.34;41.57;99427.34;1692548;84;20962;-67
2022/03/26 05:50:09;;;;;;;30.65;21.57;;;;;;;12.72;40.96;99425.40;1694025;83;22054;-65
2022/03/26 05:52:36;;;;;;;28.35;21.35;;;;;;;13.07;40.22;99425.16;1693938;83;20990;-67
2022/03/26 05:55:06;;;;;;;27.93;19.50;;;;;;;13.37;39.69;99424.09;1693729;83;21021;-68
2022/03/26 05:57:33;;;;;;;28.15;19.52;;;;;;;13.64;39.15;99411.80;1693918;83;21066;-69
2022/03/26 06:00:01;;;;;;;25.65;18.40;;;;;;;13.88;38.70;99403.89;1692397;84;21056;-71
2022/03/26 06:02:29;;;;;;;25.05;18.80;;;;;;;14.15;38.21;99399.08;1690570;84;22241;-68
2022/03/26 06:04:56;;;;;;;21.77;17.95;;;;;;;14.39;37.81;99394.62;1692796;83;21065;-67
2022/03/26 06:07:24;;;;;;;27.25;18.02;;;;;;;14.61;37.27;99398.05;1692972;82;21202;-68
2022/03/26 06:09:51;;;;;;;33.42;19.00;;;;;;;14.76;36.90;99392.04;1692331;84;20931;-67
2022/03/26 06:12:18;;;;;;;25.08;18.48;;;;;;;14.94;36.68;99390.18;1693936;83;21500;-67
2022/03/26 06:14:48;;;;;;;26.50;17.40;;;;;;;15.21;36.55;99382.53;1693681;83;21503;-68
2022/03/26 06:17:17;;;;;;;30.35;18.98;;;;;;;15.64;35.96;99377.19;1695117;83;20959;-70
2022/03/26 06:19:45;;;;;;;27.00;18.20;;;;;;;16.00;35.16;99365.53;1692243;84;21515;-68
2022/03/26 06:22:13;;;;;;;23.60;17.62;;;;;;;16.32;34.73;99361.67;1696603;83;21006;-68
2022/03/26 06:24:40;;;;;;;27.55;17.42;;;;;;;16.70;34.21;99363.13;1693865;83;20954;-69
2022/03/26 06:27:08;;;;;;;26.48;18.67;;;;;;;17.12;33.82;99362.02;1695310;83;22137;-68
2022/03/26 06:29:36;;;;;;;23.27;18.30;;;;;;;17.67;33.08;99365.01;1693830;83;21539;-68
2022/03/26 06:32:05;;;;;;;23.38;17.23;;;;;;;18.16;32.39;99367.69;1693867;83;21546;-69
2022/03/26 06:34:32;;;;;;;26.05;16.95;;;;;;;18.62;31.92;99356.97;1693707;83;21022;-69
2022/03/26 06:36:59;;;;;;;22.93;18.37;;;;;;;19.24;31.36;99349.84;1692463;84;21484;-67
2022/03/26 06:39:27;;;;;;;23.42;17.25;;;;;;;19.82;30.21;99351.90;1694042;83;21543;-68
2022/03/26 06:41:56;;;;;;;26.75;18.17;;;;;;;20.14;29.46;99349.17;1692822;83;20966;-66
2022/03/26 06:44:23;;;;;;;32.67;17.80;;;;;;;20.40;29.17;99352.78;1699593;83;21073;-67
2022/03/26 06:46:51;;;;;;;36.55;18.42;;;;;;;20.76;28.44;99348.42;1709766;82;20919;-68
2022/03/26 06:49:19;;;;;;;33.13;18.37;;;;;;;21.02;28.11;99334.88;1671774;84;20906;-69
2022/03/26 06:51:47;;;;;;;29.20;17.75;;;;;;;21.29;27.76;99333.80;1700480;83;21852;-68
2022/03/26 06:54:15;;;;;;;27.58;17.07;;;;;;;21.61;27.62;99334.92;1699603;84;21230;-69
2022/03/26 06:56:42;;;;;;;33.33;17.27;;;;;;;21.97;27.07;99329.05;1702842;82;20974;-68
2022/03/26 06:59:09;;;;;;;34.90;16.60;;;;;;;22.23;26.62;99338.91;1702613;82;21556;-72
2022/03/26 07:01:38;;;;;;;25.60;15.93;;;;;;;22.35;26.25;99327.41;1708310;82;20975;-70
2022/03/26 07:04:05;;;;;;;23.80;16.90;;;;;;;22.44;25.92;99325.93;1700550;83;21305;-68
2022/03/26 07:06:32;;;;;;;37.38;19.35;;;;;;;22.48;25.89;99329.77;1707874;82;21547;-71
2022/03/26 07:09:00;;;;;;;32.48;18.15;;;;;;;22.63;25.86;99330.81;1699676;84;20990;-67
2022/03/26 07:11:28;;;;;;;30.25;17.37;;;;;;;22.93;25.65;99329.55;1703098;82;20978;-69
2022/03/26 07:13:55;;;;;;;32.80;17.75;;;;;;;23.23;25.38;99328.55;1700790;83;20974;-67
2022/03/26 07:16:22;;;;;;;37.95;17.25;;;;;;;23.50;25.09;99306.30;1697830;83;21855;-68
2022/03/26 07:18:50;;;;;;;34.60;16.48;;;;;;;23.69;24.62;99301.31;1699015;83;20915;-68
2022/03/26 07:21:19;;;;;;;24.85;15.98;;;;;;;23.87;24.57;99304.45;1696930;84;20969;-66
2022/03/26 07:23:46;;;;;;;32.53;15.88;;;;;;;24.02;24.14;99299.65;1699697;84;20934;-69
2022/03/26 07:26:14;;;;;;;37.20;15.48;;;;;;;23.84;24.13;99287.84;1700530;83;21056;-69
2022/03/26 07:28:41;;;;;;;31.20;15.75;;;;;;;23.85;24.39;99303.07;1700597;83;21220;-68
2022/03/26 07:31:09;;;;;;;27.25;15.78;;;;;;;24.15;24.12;99293.78;1699760;84;21562;-70
2022/03/26 07:33:36;;;;;;;28.23;16.37;;;;;;;24.42;23.56;99295.03;1701195;83;21058;-69
2022/03/26 07:36:05;;;;;;;20.90;16.00;;;;;;;24.50;23.46;99291.28;1705559;82;21073;-69
2022/03/26 07:38:32;;;;;;;28.25;15.83;;;;;;;24.66;23.29;99288.08;1672211;85;20973;-70
2022/03/26 07:41:00;;;;;;;27.45;15.48;;;;;;;24.70;23.22;99291.89;1694974;84;21255;-70
2022/03/26 07:43:28;;;;;;;29.63;16.02;;;;;;;24.80;23.23;99293.85;1689112;84;21507;-69
2022/03/26 07:45:56;;;;;;;27.30;16.07;;;;;;;25.08;23.04;99286.61;1696000;83;21030;-67
2022/03/26 07:48:23;;;;;;;21.52;16.55;;;;;;;25.41;22.75;99282.56;1687586;82;21049;-66
2022/03/26 07:50:51;;;;;;;27.48;14.85;;;;;;;25.71;22.46;99278.50;1687616;84;20974;-67
2022/03/26 07:53:18;;;;;;;31.45;14.60;;;;;;;26.06;22.15;99281.74;1689909;84;21179;-70
2022/03/26 07:55:46;;;;;;;45.33;17.37;;;;;;;26.45;21.47;99267.77;1692102;84;21567;-69
2022/03/26 07:58:14;;;;;;;28.62;16.20;;;;;;;26.48;21.10;99265.02;1684377;84;21069;-67
2022/03/26 08:00:43;;;;;;;22.73;14.58;;;;;;;26.42;21.24;99268.31;1691842;84;21052;-69
2022/03/26 08:03:10;;;;;;;26.75;14.68;;;;;;;26.51;21.26;99257.11;1692246;84;21021;-68
2022/03/26 08:05:39;;;;;;;28.15;14.95;;;;;;;26.70;21.13;99239.55;1692244;84;20946;-70
2022/03/26 08:08:08;;;;;;;30.52;15.00;;;;;;;26.83;20.98;99248.51;1686895;84;21578;-67
2022/03/26 08:10:37;;;;;;;27.32;14.30;;;;;;;26.90;20.76;99253.95;1692211;84;20942;-72
2022/03/26 08:13:05;;;;;;;39.65;14.75;;;;;;;27.08;20.76;99246.19;1691576;84;20974;-71
2022/03/26 08:15:34;;;;;;;36.17;15.85;;;;;;;27.47;20.48;99238.83;1692404;84;20989;-69
2022/03/26 08:18:03;;;;;;;31.55;13.85;;;;;;;27.81;20.17;99231.41;1688736;84;21543;-67
2022/03/26 08:20:32;;;;;;;28.35;13.65;;;;;;;28.15;19.90;99223.98;1691220;84;21010;-72
2022/03/26 08:22:59;;;;;;;31.70;13.15;;;;;;;28.44;19.39;99217.07;1692099;84;21448;-66
2022/03/26 08:28:13;;;;;;;32.60;13.72;;;;;;;28.49;19.31;99202.50;1680416;84;20982;-69
2022/03/26 08:30:44;;;;;;;47.50;14.87;;;;;;;28.47;19.00;99200.63;1690428;84;22152;-67
2022/03/26 08:33:11;;;;;;;41.60;13.85;;;;;;;28.23;18.91;99202.55;1691523;84;21001;-65
2022/03/26 08:35:41;;;;;;;37.75;13.65;;;;;;;28.07;18.94;99189.07;1690462;84;20978;-67
2022/03/26 08:38:09;;;;;;;29.00;12.30;;;;;;;27.92;18.94;99192.49;1690637;84;21092;-67
2022/03/26 08:40:36;;;;;;;29.98;11.85;;;;;;;27.80;19.08;99183.86;1686361;84;21007;-66
2022/03/26 08:43:06;;;;;;;38.35;11.95;;;;;;;27.86;18.83;99188.17;1690009;84;21231;-68
2022/03/26 08:45:35;;;;;;;39.75;12.15;;;;;;;27.88;18.35;99171.75;1695571;82;20953;-67
2022/03/26 08:48:03;;;;;;;41.83;11.65;;;;;;;27.69;18.67;99174.95;1699979;83;21103;-69
2022/03/26 08:50:30;;;;;;;43.80;10.82;;;;;;;27.82;18.61;99178.36;1700365;83;21486;-66
2022/03/26 08:52:58;;;;;;;33.65;11.20;;;;;;;28.11;18.48;99185.18;1698650;83;20986;-66
2022/03/26 08:55:25;;;;;;;19.75;10.63;;;;;;;28.36;18.22;99177.23;1701476;83;21525;-66
2022/03/26 08:57:53;;;;;;;32.83;10.25;;;;;;;28.45;18.08;99176.27;1697046;83;20947;-70
2022/03/26 09:00:20;;;;;;;31.57;11.22;;;;;;;28.55;18.15;99164.40;1700949;83;20986;-68
2022/03/26 09:02:49;;;;;;;29.87;11.35;;;;;;;28.74;17.98;99152.36;1698154;84;20986;-67
2022/03/26 09:05:17;;;;;;;38.35;11.30;;;;;;;28.98;17.87;99167.33;1696176;84;21515;-66
2022/03/26 09:07:44;;;;;;;22.50;9.78;;;;;;;29.27;17.82;99150.19;1699631;83;21141;-68
2022/03/26 09:10:13;;;;;;;32.58;10.45;;;;;;;29.57;17.50;99155.66;1690174;83;21543;-67
2022/03/26 09:12:42;;;;;;;31.87;10.03;;;;;;;29.55;17.42;99155.71;1699002;83;20910;-65
2022/03/26 09:15:09;;;;;;;35.13;10.45;;;;;;;29.47;17.44;99152.29;1698888;83;20949;-68
2022/03/26 09:17:38;;;;;;;59.90;11.80;;;;;;;29.52;17.44;99142.61;1698252;84;21457;-68
2022/03/26 09:20:09;;;;;;;51.88;11.65;;;;;;;29.53;17.10;99128.62;1699012;83;21128;-67
2022/03/26 09:22:36;;;;;;;44.55;10.28;;;;;;;29.21;17.42;99134.13;1700316;82;21045;-68
2022/03/26 09:25:05;;;;;;;36.98;9.43;;;;;;;29.23;17.61;99113.53;1698931;83;21862;-68
2022/03/26 09:27:33;;;;;;;47.23;11.45;;;;;;;29.36;17.47;99111.38;1698588;83;20974;-67
2022/03/26 09:30:00;;;;;;;36.55;9.75;;;;;;;29.40;17.36;99108.86;1698457;83;21032;-67
2022/03/26 09:32:30;;;;;;;19.57;9.50;;;;;;;28.98;17.66;99101.63;1697779;84;21127;-67
2022/03/26 09:34:58;;;;;;;39.27;10.03;;;;;;;29.09;17.71;99103.09;1698725;83;21017;-68
2022/03/26 09:37:25;;;;;;;23.47;8.98;;;;;;;28.98;17.87;99090.67;1698585;83;21058;-69
2022/03/26 09:39:54;;;;;;;44.80;11.15;;;;;;;28.94;17.86;99101.94;1694484;83;20978;-67
2022/03/26 09:42:24;;;;;;;37.85;9.98;;;;;;;28.69;17.95;99071.70;1698661;83;20949;-68
2022/03/26 09:44:52;;;;;;;36.45;10.15;;;;;;;28.38;18.28;99095.69;1698781;83;21325;-69
2022/03/26 09:47:19;;;;;;;30.23;9.35;;;;;;;28.23;18.64;99087.15;1697928;84;21439;-67
2022/03/26 09:49:46;;;;;;;40.35;10.05;;;;;;;28.16;18.72;99082.03;1666356;83;21086;-71
2022/03/26 09:52:14;;;;;;;30.10;10.13;;;;;;;28.09;18.85;99076.12;1698419;83;21005;-66
2022/03/26 09:54:41;;;;;;;40.98;9.65;;;;;;;28.20;18.81;99062.30;1700313;83;21010;-71
2022/03/26 09:57:09;;;;;;;97.85;13.22;;;;;;;27.89;18.96;99053.67;1697801;84;21251;-66
2022/03/26 09:59:37;;;;;;;70.80;10.63;;;;;;;27.41;19.22;99052.32;1700469;83;21522;-65
2022/03/26 10:02:04;;;;;;;57.43;10.68;;;;;;;27.09;19.48;99038.41;1698912;84;21061;-65
2022/03/26 10:04:41;;;;;;;46.13;10.25;;;;;;;26.70;19.87;99054.02;1698728;83;21172;-70
2022/03/26 10:07:09;;;;;;;50.20;9.95;;;;;;;26.48;20.29;99040.84;1666081;86;20966;-70
2022/03/26 10:09:42;;;;;;;33.73;8.73;;;;;;;26.59;20.25;99031.48;1697071;84;21599;-67
2022/03/26 10:12:15;;;;;;;29.55;8.83;;;;;;;26.50;20.25;99040.00;1687154;84;20922;-67
2022/03/26 10:14:59;;;;;;;24.20;8.05;;;;;;;26.19;20.78;99018.95;1697704;83;20998;-66
2022/03/26 10:17:30;;;;;;;35.30;8.43;;;;;;;25.91;21.15;99007.38;1668736;84;20970;-68
2022/03/26 10:20:03;;;;;;;25.65;7.62;;;;;;;25.86;21.25;99001.14;1702044;82;21161;-66
2022/03/26 10:22:41;;;;;;;32.42;7.78;;;;;;;25.87;21.26;98994.58;1698880;83;21094;-67
2022/03/26 10:25:15;;;;;;;51.63;9.65;;;;;;;25.83;21.34;98985.34;1687371;84;21521;-67
2022/03/26 10:27:49;;;;;;;27.30;7.33;;;;;;;25.65;21.42;98997.70;1699530;84;20926;-68
2022/03/26 10:32:38;;;;;;;24.60;7.20;;;;;;;25.46;21.74;98983.89;1693112;83;20970;-67
2022/03/26 10:32:49;;;;;;;43.52;7.72;;;;;;;25.28;21.97;99004.89;1695623;84;20966;-68
2022/03/26 10:35:21;;;;;;;26.87;7.90;;;;;;;25.18;22.07;98983.94;1699790;84;21115;-67
2022/03/26 10:38:00;;;;;;;15.35;7.05;;;;;;;25.00;22.34;98981.80;1697138;83;20970;-67
2022/03/26 10:40:33;;;;;;;25.20;7.40;;;;;;;24.89;22.59;98994.36;1699661;84;20946;-69
2022/03/26 10:43:13;;;;;;;34.80;7.80;;;;;;;24.84;22.74;98976.15;1716791;82;20977;-68
2022/03/26 10:45:52;;;;;;;26.90;8.93;;;;;;;24.74;22.88;98999.22;1700486;83;20910;-68
2022/03/26 10:48:30;;;;;;;38.35;8.23;;;;;;;24.59;22.87;98984.28;1691087;84;21298;-68
2022/03/26 10:51:11;;;;;;;35.38;8.45;;;;;;;24.22;23.18;98974.23;1699633;84;21006;-68
2022/03/26 10:53:54;;;;;;;23.25;7.00;;;;;;;23.82;23.69;98961.37;1699668;83;21508;-67
2022/03/26 10:56:22;;;;;;;22.05;7.40;;;;;;;23.60;24.11;98952.60;1700505;83;20958;-68
2022/03/26 10:58:52;;;;;;;36.10;8.43;;;;;;;23.41;24.54;98963.15;1699748;84;20934;-67
2022/03/26 11:01:20;;;;;;;36.05;8.03;;;;;;;23.30;24.75;98935.66;1700596;83;21201;-68
2022/03/26 11:03:50;;;;;;;17.98;7.90;;;;;;;23.17;24.86;98936.96;1699668;84;21484;-67
2022/03/26 11:06:20;;;;;;;25.27;8.75;;;;;;;23.09;25.08;98932.58;1699680;84;20966;-67
2022/03/26 11:08:48;;;;;;;60.08;10.82;;;;;;;22.99;25.26;98937.95;1701272;83;21535;-67
2022/03/26 11:11:15;;;;;;;35.45;9.55;;;;;;;22.87;25.44;98923.23;1660318;85;20926;-67
2022/03/26 11:13:49;;;;;;;30.52;8.80;;;;;;;22.68;25.64;98924.20;1699678;84;21067;-71
2022/03/26 11:16:41;;;;;;;19.35;7.83;;;;;;;22.50;25.90;98911.03;1690372;84;21033;-69
2022/03/26 11:19:28;;;;;;;30.32;9.03;;;;;;;22.40;26.20;98920.45;1689680;83;21021;-67
2022/03/26 11:22:05;;;;;;;49.53;9.88;;;;;;;22.21;26.49;98925.19;1680709;83;21510;-72
2022/03/26 11:25:17;;;;;;;33.05;9.15;;;;;;;22.03;26.71;98912.30;1700616;83;21025;-67
2022/03/26 11:28:19;;;;;;;20.82;8.40;;;;;;;21.82;26.92;98920.48;1695619;84;21335;-67
2022/03/26 11:31:11;;;;;;;25.08;8.75;;;;;;;21.56;27.44;98895.05;1699724;84;21009;-70
2022/03/26 11:33:40;;;;;;;24.82;9.18;;;;;;;21.39;27.70;98889.72;1694926;83;20926;-69